Time;durP1;ratioP1;P1;durP2;ratioP2;P2;SDS_P1;SDS_P2;PMS_P1;PMS_P2;Temp;Humidity;BMP_temperature;BMP_pressure;BME280_temperature;BME280_humidity;BME280_pressure;Samples;Min_cycle;Max_cycle;Signal;HPM_P1;HPM_P2
2022/09/23 00:02:12;;;;;;;34.10;31.70;;;;;;;9.31;100.00;101243.38;6185838;23;20390;-82
2022/09/23 00:04:43;;;;;;;34.53;32.22;;;;;;;9.34;100.00;101237.69;6186392;23;20017;-83
2022/09/23 00:07:14;;;;;;;36.43;33.93;;;;;;;9.30;100.00;101232.97;6186613;23;20100;-81
2022/09/23 00:09:46;;;;;;;40.65;38.25;;;;;;;9.40;100.00;101230.84;6186203;23;20036;-84
2022/09/23 00:12:15;;;;;;;42.80;40.00;;;;;;;9.29;100.00;101237.44;6186091;23;20017;-84
2022/09/23 00:14:46;;;;;;;36.28;33.97;;;;;;;9.49;100.00;101227.06;6186591;23;20029;-82
2022/09/23 00:17:24;;;;;;;42.47;39.97;;;;;;;9.42;100.00;101235.97;6186598;23;20111;-85
2022/09/23 00:19:55;;;;;;;38.22;35.88;;;;;;;9.46;100.00;101235.41;6186071;23;20071;-81
2022/09/23 00:22:30;;;;;;;40.75;38.15;;;;;;;9.51;100.00;101233.03;6186604;23;20032;-80
2022/09/23 00:25:06;;;;;;;39.63;37.13;;;;;;;9.58;100.00;101225.13;6186015;23;20017;-84
2022/09/23 00:27:34;;;;;;;37.42;35.03;;;;;;;9.38;100.00;101230.22;6186575;23;20087;-83
2022/09/23 00:30:07;;;;;;;37.78;35.25;;;;;;;9.51;100.00;101226.91;6186256;23;20029;-83
2022/09/23 00:32:51;;;;;;;41.88;39.13;;;;;;;9.58;100.00;101227.78;6185850;23;20021;-85
2022/09/23 00:35:22;;;;;;;37.55;34.95;;;;;;;9.51;100.00;101227.72;6186317;23;20021;-81
2022/09/23 00:37:54;;;;;;;34.75;32.55;;;;;;;9.58;100.00;101231.25;6185915;23;20021;-83
2022/09/23 00:40:23;;;;;;;36.45;34.05;;;;;;;9.62;100.00;101229.88;6185871;23;20025;-81
2022/09/23 00:42:52;;;;;;;36.05;33.85;;;;;;;9.31;100.00;101235.41;6186306;23;20107;-82
2022/09/23 00:45:24;;;;;;;38.00;35.53;;;;;;;9.18;100.00;101240.56;6186109;23;20029;-84
2022/09/23 00:48:00;;;;;;;37.47;35.00;;;;;;;9.27;100.00;101238.63;6185813;23;20473;-82
2022/09/23 00:50:35;;;;;;;36.65;34.15;;;;;;;9.43;100.00;101240.25;6186247;23;20092;-82
2022/09/23 00:53:11;;;;;;;32.88;30.77;;;;;;;9.05;100.00;101241.22;6186068;23;20508;-85
2022/09/23 00:55:47;;;;;;;33.45;31.25;;;;;;;9.04;100.00;101252.78;6185743;23;20104;-82
2022/09/23 00:58:18;;;;;;;35.83;33.63;;;;;;;9.12;100.00;101251.88;6186543;23;20021;-80
2022/09/23 01:00:52;;;;;;;35.60;33.25;;;;;;;9.12;100.00;101260.66;6185619;23;20431;-81
2022/09/23 01:03:21;;;;;;;35.92;33.40;;;;;;;9.15;100.00;101256.81;6185662;23;20025;-82
2022/09/23 01:05:53;;;;;;;34.50;32.22;;;;;;;8.89;100.00;101270.50;6186079;23;20021;-82
2022/09/23 01:08:23;;;;;;;35.57;33.17;;;;;;;9.19;100.00;101274.00;6185820;23;20020;-81
2022/09/23 01:11:04;;;;;;;32.40;30.10;;;;;;;8.95;100.00;101285.69;6185761;23;20098;-85
2022/09/23 01:13:48;;;;;;;33.80;31.42;;;;;;;9.00;100.00;101282.50;6185585;23;20512;-82
2022/09/23 01:16:22;;;;;;;36.90;34.50;;;;;;;8.84;100.00;101278.19;6185796;23;20021;-81
2022/09/23 01:19:03;;;;;;;34.67;32.38;;;;;;;8.41;100.00;101283.19;6185698;23;20021;-84
2022/09/23 01:21:57;;;;;;;39.50;36.88;;;;;;;8.92;100.00;101296.63;6185425;23;20020;-80
2022/09/23 01:24:58;;;;;;;38.22;35.63;;;;;;;9.12;100.00;101292.47;6186003;23;20025;-83
2022/09/23 01:27:40;;;;;;;34.78;32.28;;;;;;;9.10;100.00;101294.47;6185683;23;20485;-82
2022/09/23 01:30:51;;;;;;;35.70;33.40;;;;;;;8.70;100.00;101293.88;6184927;23;20025;-85
2022/09/23 01:33:33;;;;;;;38.85;36.25;;;;;;;8.73;100.00;101294.50;6184843;23;20021;-80
2022/09/23 01:36:11;;;;;;;37.35;34.88;;;;;;;8.76;100.00;101294.97;6185880;23;20112;-81
2022/09/23 01:38:57;;;;;;;37.45;34.65;;;;;;;8.75;100.00;101295.16;6185167;23;20540;-80
2022/09/23 01:41:51;;;;;;;39.88;37.38;;;;;;;8.37;100.00;101301.22;6185794;23;20051;-84
2022/09/23 01:44:33;;;;;;;35.40;32.83;;;;;;;8.63;100.00;101303.53;6185225;23;20021;-83
2022/09/23 01:47:13;;;;;;;37.55;35.05;;;;;;;8.41;100.00;101291.97;6184634;23;20342;-81
2022/09/23 01:50:54;;;;;;;46.60;43.45;;;;;;;8.58;100.00;101300.59;6185264;23;20036;-81
2022/09/23 01:53:02;;;;;;;40.63;38.05;;;;;;;8.55;100.00;101298.31;6187244;23;20496;-84
2022/09/23 01:55:40;;;;;;;39.50;36.95;;;;;;;8.72;100.00;101304.28;6188309;23;20382;-85
2022/09/23 01:58:12;;;;;;;40.88;38.28;;;;;;;8.57;100.00;101312.19;6187288;23;20092;-81
2022/09/23 02:00:47;;;;;;;43.70;41.00;;;;;;;8.47;100.00;101308.94;6186510;22;21130;-81
2022/09/23 02:03:19;;;;;;;43.97;41.15;;;;;;;8.69;100.00;101305.47;6244353;23;20086;-85
2022/09/23 02:05:51;;;;;;;46.13;43.25;;;;;;;8.76;100.00;101305.56;6246412;23;20385;-82
2022/09/23 02:08:22;;;;;;;;;;;;;;;8.70;100.00;101301.81;6247636;23;20024;-82
2022/09/23 02:10:56;;;;;;;45.72;43.03;;;;;;;8.81;100.00;101299.75;6247437;23;19982;-84
2022/09/23 02:13:28;;;;;;;40.05;37.65;;;;;;;8.70;100.00;101306.28;6247180;23;20089;-81
2022/09/23 02:15:57;;;;;;;;;;;;;;;8.68;100.00;101305.63;6248011;23;20020;-82
2022/09/23 02:18:30;;;;;;;40.20;37.60;;;;;;;8.58;100.00;101313.84;6248297;23;19919;-82
2022/09/23 02:21:08;;;;;;;41.42;38.78;;;;;;;8.41;100.00;101314.94;6247113;23;20028;-85
2022/09/23 02:23:40;;;;;;;36.60;34.30;;;;;;;8.38;100.00;101309.97;6247335;23;20310;-83
2022/09/23 02:26:18;;;;;;;41.83;39.20;;;;;;;8.42;100.00;101308.69;6246561;23;20024;-81
2022/09/23 02:28:56;;;;;;;41.30;38.60;;;;;;;8.16;100.00;101312.44;6246991;23;20020;-82
2022/09/23 02:31:32;;;;;;;35.10;32.70;;;;;;;8.22;100.00;101303.00;6246645;23;20035;-80
2022/09/23 02:34:12;;;;;;;38.75;36.15;;;;;;;8.19;100.00;101300.69;6247339;23;20024;-83
2022/09/23 02:36:52;;;;;;;32.08;29.70;;;;;;;7.75;100.00;101310.03;6247520;23;20028;-85
2022/09/23 02:39:24;;;;;;;33.70;31.48;;;;;;;7.26;100.00;101310.25;6247741;23;20101;-82
2022/09/23 02:41:58;;;;;;;42.42;39.63;;;;;;;7.88;100.00;101312.13;6247774;23;20043;-80
2022/09/23 02:44:27;;;;;;;40.72;37.90;;;;;;;7.96;100.00;101313.91;6247663;23;20081;-85
2022/09/23 02:46:55;;;;;;;35.60;33.45;;;;;;;7.14;100.00;101313.38;6247726;23;20028;-86
2022/09/23 02:49:25;;;;;;;38.10;35.60;;;;;;;7.50;100.00;101319.06;6248011;23;20051;-81
2022/09/23 02:51:56;;;;;;;31.55;29.25;;;;;;;7.03;100.00;101328.59;6246898;23;20336;-81
2022/09/23 02:54:25;;;;;;;35.40;32.90;;;;;;;7.43;100.00;101332.13;6247129;23;20441;-82
2022/09/23 02:56:56;;;;;;;39.83;37.22;;;;;;;7.60;100.00;101322.34;6247525;23;20028;-83
2022/09/23 02:59:25;;;;;;;44.45;41.58;;;;;;;7.70;100.00;101327.41;6247615;23;20023;-81
2022/09/23 03:02:13;;;;;;;37.92;35.58;;;;;;;7.29;100.00;101336.31;6246293;22;20020;-81
2022/09/23 03:04:51;;;;;;;36.53;34.25;;;;;;;6.96;100.00;101342.63;6247312;23;20024;-85
2022/09/23 03:07:31;;;;;;;41.17;38.67;;;;;;;7.35;100.00;101337.44;6245709;23;20020;-86
2022/09/23 03:10:08;;;;;;;37.35;34.75;;;;;;;7.05;100.00;101336.34;6246017;23;20016;-85
2022/09/23 03:12:41;;;;;;;37.25;34.72;;;;;;;7.37;100.00;101322.25;6247375;23;20016;-85
2022/09/23 03:15:25;;;;;;;43.55;40.80;;;;;;;7.14;100.00;101335.38;6246963;23;20229;-81
2022/09/23 03:18:01;;;;;;;41.42;38.72;;;;;;;6.65;100.00;101330.09;6247643;23;20032;-81
2022/09/23 03:20:34;;;;;;;36.63;34.35;;;;;;;6.56;100.00;101341.66;6247134;23;20020;-82
2022/09/23 03:23:07;;;;;;;40.35;37.85;;;;;;;7.19;100.00;101342.78;6247175;23;20020;-85
2022/09/23 03:25:39;;;;;;;48.20;44.75;;;;;;;7.58;100.00;101353.41;6247397;23;20081;-85
2022/09/23 03:28:07;;;;;;;47.33;43.20;;;;;;;7.58;100.00;101342.84;6247237;23;20028;-81
2022/09/23 03:30:37;;;;;;;48.95;44.90;;;;;;;7.70;100.00;101346.75;6247574;23;20023;-82
2022/09/23 03:33:08;;;;;;;48.92;44.90;;;;;;;7.49;100.00;101344.69;6246889;23;20020;-81
2022/09/23 03:36:48;;;;;;;45.40;41.95;;;;;;;7.18;100.00;101341.13;6246755;23;20482;-83
2022/09/23 03:38:34;;;;;;;43.85;39.80;;;;;;;7.72;100.00;101346.59;6246314;23;20063;-82
2022/09/23 03:41:04;;;;;;;43.03;39.90;;;;;;;7.78;100.00;101344.06;6246458;23;20024;-81
2022/09/23 03:43:31;;;;;;;39.25;36.25;;;;;;;7.62;100.00;101345.94;6246634;23;20075;-81
2022/09/23 03:46:00;;;;;;;40.08;37.47;;;;;;;7.23;100.00;101341.44;6246816;23;20090;-81
2022/09/23 03:48:26;;;;;;;39.78;36.92;;;;;;;6.78;100.00;101354.22;6247590;23;20123;-85
2022/09/23 03:50:53;;;;;;;42.03;39.25;;;;;;;7.16;100.00;101354.50;6247085;23;20095;-82
2022/09/23 03:53:21;;;;;;;47.03;43.63;;;;;;;7.10;100.00;101350.72;6246820;23;20020;-85
2022/09/23 03:55:49;;;;;;;49.88;45.60;;;;;;;7.37;100.00;101356.59;6246816;23;20086;-82
2022/09/23 03:58:16;;;;;;;59.03;54.42;;;;;;;7.26;100.00;101352.53;6246685;23;20445;-86
2022/09/23 04:00:44;;;;;;;49.13;45.28;;;;;;;7.22;100.00;101347.72;6246078;22;20052;-83
2022/09/23 04:03:13;;;;;;;47.40;43.60;;;;;;;7.23;100.00;101357.28;6246404;23;20403;-83
2022/09/23 04:05:41;;;;;;;32.72;30.52;;;;;;;7.15;100.00;101349.41;6246310;23;20099;-81
2022/09/23 04:08:08;;;;;;;33.22;31.02;;;;;;;6.46;100.00;101352.38;6246086;23;20040;-82
2022/09/23 04:10:35;;;;;;;31.17;29.13;;;;;;;6.43;100.00;101348.25;6246171;23;20361;-83
2022/09/23 04:13:04;;;;;;;29.52;27.65;;;;;;;6.53;100.00;101356.00;6246102;23;20364;-82
2022/09/23 04:15:31;;;;;;;35.08;33.03;;;;;;;6.98;100.00;101351.22;6246797;23;20024;-86
2022/09/23 04:17:58;;;;;;;35.45;33.40;;;;;;;7.11;100.00;101360.31;6246313;23;20020;-82
2022/09/23 04:20:27;;;;;;;30.20;28.38;;;;;;;7.27;100.00;101355.97;6246064;23;20074;-82
2022/09/23 04:22:54;;;;;;;30.48;28.60;;;;;;;7.30;100.00;101359.09;6246526;23;20090;-83
2022/09/23 04:25:25;;;;;;;29.73;27.83;;;;;;;7.20;100.00;101360.25;6246659;23;20097;-86
2022/09/23 04:27:53;;;;;;;29.75;27.80;;;;;;;7.02;100.00;101356.03;6246925;23;20382;-82
2022/09/23 04:30:22;;;;;;;32.50;30.20;;;;;;;7.26;100.00;101360.44;6246940;23;20448;-82
2022/09/23 04:32:52;;;;;;;34.17;31.58;;;;;;;7.14;100.00;101361.78;6245278;23;20024;-86
2022/09/23 04:35:19;;;;;;;38.65;36.03;;;;;;;7.44;100.00;101360.22;6245846;23;20031;-81
2022/09/23 04:37:49;;;;;;;40.70;38.17;;;;;;;7.81;100.00;101358.78;6245089;23;20086;-83
2022/09/23 04:40:16;;;;;;;35.80;33.63;;;;;;;7.90;100.00;101355.09;6245995;23;20089;-82
2022/09/23 04:42:43;;;;;;;33.05;30.83;;;;;;;8.17;100.00;101352.97;6246130;23;20016;-83
2022/09/23 04:45:11;;;;;;;32.67;30.05;;;;;;;8.13;100.00;101349.84;6246745;23;20020;-83
2022/09/23 04:47:41;;;;;;;34.67;32.05;;;;;;;8.37;100.00;101353.34;6245413;23;20020;-83
2022/09/23 04:50:08;;;;;;;34.22;31.80;;;;;;;8.31;100.00;101348.75;6246157;23;20480;-81
2022/09/23 04:52:36;;;;;;;36.92;34.53;;;;;;;8.28;100.00;101341.97;6245587;23;20024;-82
2022/09/23 04:55:08;;;;;;;33.58;31.35;;;;;;;8.29;100.00;101338.34;6246812;23;20020;-84
2022/09/23 04:57:35;;;;;;;32.30;30.00;;;;;;;8.23;100.00;101349.66;6246373;23;20376;-84
2022/09/23 05:00:03;;;;;;;38.60;35.55;;;;;;;8.41;100.00;101352.00;6245651;23;20028;-82
2022/09/23 05:02:30;;;;;;;32.65;30.55;;;;;;;8.18;100.00;101344.03;6246072;22;20031;-80
2022/09/23 05:05:02;;;;;;;33.25;31.25;;;;;;;8.52;100.00;101358.72;6246645;23;20020;-84
2022/09/23 05:07:29;;;;;;;35.72;33.42;;;;;;;8.62;100.00;101360.16;6246522;23;20027;-80
2022/09/23 05:09:59;;;;;;;38.17;35.53;;;;;;;8.89;100.00;101352.63;6246189;23;20449;-84
2022/09/23 05:12:26;;;;;;;34.63;32.47;;;;;;;8.57;100.00;101359.84;6243888;23;20020;-82
2022/09/23 05:14:53;;;;;;;33.35;31.35;;;;;;;8.61;100.00;101363.78;6246116;23;20384;-84
2022/09/23 05:17:30;;;;;;;34.05;32.03;;;;;;;8.83;100.00;101366.59;6245848;23;20030;-85
2022/09/23 05:19:57;;;;;;;33.33;31.05;;;;;;;8.32;100.00;101367.13;6245273;23;20433;-82
2022/09/23 05:22:26;;;;;;;34.47;32.38;;;;;;;8.87;100.00;101367.91;6245573;23;20047;-81
2022/09/23 05:24:54;;;;;;;35.80;33.60;;;;;;;9.06;100.00;101359.44;6245593;23;20027;-80
2022/09/23 05:27:22;;;;;;;34.45;32.35;;;;;;;8.90;100.00;101362.25;6246084;23;20024;-85
2022/09/23 05:29:51;;;;;;;34.72;32.30;;;;;;;9.13;100.00;101355.06;6245055;23;20086;-85
2022/09/23 05:32:18;;;;;;;36.88;34.58;;;;;;;9.00;100.00;101365.47;6245279;23;20351;-81
2022/09/23 05:34:45;;;;;;;38.67;36.45;;;;;;;9.34;100.00;101366.78;6245520;23;20491;-81
2022/09/23 05:37:12;;;;;;;36.15;33.83;;;;;;;9.36;100.00;101362.94;6245589;23;20031;-81
2022/09/23 05:39:43;;;;;;;35.15;32.95;;;;;;;9.63;100.00;101374.75;6245006;23;20034;-81
2022/09/23 05:42:11;;;;;;;33.03;31.13;;;;;;;9.57;100.00;101378.13;6245614;23;20437;-81
2022/09/23 05:44:38;;;;;;;35.47;33.33;;;;;;;9.61;100.00;101374.09;6245290;23;20428;-80
2022/09/23 05:47:05;;;;;;;35.40;33.17;;;;;;;8.91;100.00;101380.59;6245254;23;20016;-82
2022/09/23 05:49:32;;;;;;;37.38;34.97;;;;;;;9.46;100.00;101375.94;6245104;23;20015;-83
2022/09/23 05:51:59;;;;;;;37.97;35.63;;;;;;;9.73;100.00;101371.81;6245575;23;20035;-81
2022/09/23 05:54:27;;;;;;;36.17;33.95;;;;;;;9.97;100.00;101373.34;6245368;23;20016;-85
2022/09/23 05:56:55;;;;;;;37.90;35.75;;;;;;;9.91;100.00;101371.44;6245042;23;20437;-80
2022/09/23 05:59:23;;;;;;;36.67;34.20;;;;;;;9.96;100.00;101379.66;6245027;23;20016;-85
2022/09/23 06:01:50;;;;;;;38.67;36.28;;;;;;;9.59;100.00;101383.25;6245524;22;20020;-81
2022/09/23 06:04:17;;;;;;;49.30;44.70;;;;;;;9.94;100.00;101383.50;6246000;23;20020;-80
2022/09/23 06:06:46;;;;;;;42.60;39.00;;;;;;;10.08;100.00;101385.31;6245609;23;20027;-81
2022/09/23 06:09:14;;;;;;;40.17;37.13;;;;;;;10.19;100.00;101384.81;6245252;23;20031;-83
2022/09/23 06:11:42;;;;;;;39.45;36.85;;;;;;;10.36;100.00;101392.59;6244131;23;20514;-81
2022/09/23 06:14:13;;;;;;;41.78;39.17;;;;;;;10.54;100.00;101391.16;6243577;23;20028;-80
2022/09/23 06:16:50;;;;;;;;;;;;;;;;;;;;;
2022/09/23 06:19:23;;;;;;;38.83;36.53;;;;;;;10.98;100.00;101391.94;6244336;23;20095;-80
2022/09/23 06:21:52;;;;;;;;;;;;;;;10.90;100.00;101389.44;6246196;23;20043;-82
2022/09/23 06:24:24;;;;;;;42.90;39.90;;;;;;;11.06;100.00;101396.31;6245493;23;19942;-81
2022/09/23 06:26:58;;;;;;;42.70;38.93;;;;;;;11.27;100.00;101398.94;6245328;23;20056;-83
2022/09/23 06:29:32;;;;;;;42.33;38.38;;;;;;;11.62;100.00;101405.09;6245368;23;20078;-82
2022/09/23 06:32:08;;;;;;;40.67;37.33;;;;;;;11.80;100.00;101403.75;6246331;23;20031;-84
2022/09/23 06:35:00;;;;;;;39.08;36.20;;;;;;;11.83;100.00;101400.69;6245582;23;20024;-80
2022/09/23 06:37:32;;;;;;;39.78;37.13;;;;;;;12.03;100.00;101401.63;6239238;23;20024;-84
2022/09/23 06:40:04;;;;;;;41.20;38.33;;;;;;;12.12;100.00;101396.97;6246254;23;20094;-82
2022/09/23 06:42:36;;;;;;;40.22;37.63;;;;;;;12.65;100.00;101397.09;6246825;23;20102;-83
2022/09/23 06:45:08;;;;;;;45.55;41.42;;;;;;;12.70;100.00;101402.63;6247164;23;20448;-81
2022/09/23 06:47:36;;;;;;;42.13;38.90;;;;;;;13.23;100.00;101413.31;6248031;23;20115;-81
2022/09/23 06:50:05;;;;;;;38.85;36.20;;;;;;;13.28;100.00;101412.72;6246820;23;20376;-82
2022/09/23 06:52:39;;;;;;;38.10;35.47;;;;;;;13.57;100.00;101411.47;6246265;23;20020;-82
2022/09/23 06:55:10;;;;;;;36.97;34.97;;;;;;;12.04;100.00;101413.94;6246819;23;20016;-84
2022/09/23 06:57:42;;;;;;;36.70;34.50;;;;;;;12.98;100.00;101417.63;6245473;23;20425;-82
2022/09/23 07:00:18;;;;;;;35.05;32.95;;;;;;;13.15;100.00;101415.38;6247328;23;20365;-83
2022/09/23 07:02:48;;;;;;;34.92;32.83;;;;;;;13.31;100.00;101416.81;6246668;22;20017;-82
2022/09/23 07:05:16;;;;;;;33.67;31.67;;;;;;;13.31;100.00;101414.97;6247414;23;20068;-81
2022/09/23 07:07:46;;;;;;;32.92;31.00;;;;;;;13.27;100.00;101424.44;6247027;23;20020;-84
2022/09/23 07:10:15;;;;;;;32.75;30.85;;;;;;;13.48;100.00;101426.03;6247380;23;20020;-86
2022/09/23 07:12:47;;;;;;;34.28;32.22;;;;;;;13.39;100.00;101428.09;6247444;23;20445;-83
2022/09/23 07:15:16;;;;;;;34.17;32.25;;;;;;;14.00;100.00;101426.13;6247293;23;20095;-81
2022/09/23 07:17:48;;;;;;;34.53;32.20;;;;;;;12.87;100.00;101434.25;6247671;23;20457;-85
2022/09/23 07:20:22;;;;;;;34.95;32.95;;;;;;;13.25;100.00;101446.00;6247649;23;20031;-85
2022/09/23 07:22:58;;;;;;;34.35;32.28;;;;;;;13.27;100.00;101446.59;6247201;23;20031;-82
2022/09/23 07:25:33;;;;;;;33.40;31.40;;;;;;;12.55;100.00;101447.28;6247298;23;20020;-83
2022/09/23 07:28:06;;;;;;;35.28;33.28;;;;;;;12.04;100.00;101461.88;6247367;23;20024;-82
2022/09/23 07:30:43;;;;;;;35.85;33.75;;;;;;;13.03;100.00;101452.50;6247532;23;20016;-82
2022/09/23 07:33:15;;;;;;;34.58;32.58;;;;;;;13.25;100.00;101440.66;6247138;23;20020;-80
2022/09/23 07:35:43;;;;;;;38.42;35.47;;;;;;;13.26;100.00;101441.47;6246110;23;20029;-83
2022/09/23 07:38:10;;;;;;;36.67;34.33;;;;;;;13.09;100.00;101445.53;6246841;23;20095;-85
2022/09/23 07:40:54;;;;;;;34.30;32.00;;;;;;;12.09;100.00;101451.44;6246992;23;20506;-81
2022/09/23 07:43:26;;;;;;;35.63;33.33;;;;;;;11.44;100.00;101458.81;6247206;23;20024;-82
2022/09/23 07:46:05;;;;;;;37.23;34.67;;;;;;;11.95;100.00;101449.72;6247034;23;20460;-82
2022/09/23 07:48:34;;;;;;;40.28;37.47;;;;;;;12.46;100.00;101443.97;6246443;23;20097;-81
2022/09/23 07:51:17;;;;;;;40.28;37.33;;;;;;;12.39;100.00;101435.16;6247309;23;20020;-82
2022/09/23 07:53:50;;;;;;;66.65;60.80;;;;;;;12.41;100.00;101424.31;6246031;23;20028;-80
2022/09/23 07:56:24;;;;;;;52.30;48.13;;;;;;;12.15;100.00;101433.84;6247246;23;20456;-85
2022/09/23 07:58:59;;;;;;;113.88;101.38;;;;;;;12.22;100.00;101425.88;6246917;23;20103;-81
2022/09/23 08:01:44;;;;;;;81.05;73.07;;;;;;;12.25;100.00;101425.47;6245866;22;20099;-80
2022/09/23 08:04:16;;;;;;;43.70;40.55;;;;;;;12.18;100.00;101429.97;6246420;23;20030;-84
2022/09/23 08:06:47;;;;;;;;;;;;;;;12.44;100.00;101418.59;6246892;23;20063;-84
2022/09/23 08:09:18;;;;;;;38.47;35.70;;;;;;;12.12;100.00;101419.09;6245173;23;19939;-82
2022/09/23 08:11:48;;;;;;;40.30;37.58;;;;;;;12.16;100.00;101416.84;6246321;23;20024;-80
2022/09/23 08:14:21;;;;;;;41.25;38.45;;;;;;;12.04;100.00;101421.09;6245842;23;20024;-81
2022/09/23 08:16:52;;;;;;;38.95;36.45;;;;;;;12.19;100.00;101423.59;6246353;23;20027;-80
2022/09/23 08:19:24;;;;;;;38.95;36.20;;;;;;;12.26;100.00;101421.81;6246218;23;20467;-82
2022/09/23 08:21:51;;;;;;;38.97;36.45;;;;;;;12.17;100.00;101423.00;6246215;23;20024;-81
2022/09/23 08:24:25;;;;;;;44.00;40.15;;;;;;;12.29;100.00;101419.56;6246772;23;20067;-80
2022/09/23 08:26:58;;;;;;;57.47;50.30;;;;;;;12.11;100.00;101417.44;6246012;23;20357;-81
2022/09/23 08:29:30;;;;;;;48.55;43.55;;;;;;;12.02;100.00;101425.81;6246137;23;20052;-85
2022/09/23 08:32:05;;;;;;;101.57;64.97;;;;;;;12.33;100.00;101420.78;6246371;23;20492;-84
2022/09/23 08:34:34;;;;;;;266.85;130.13;;;;;;;12.36;100.00;101411.59;6246555;23;20020;-81
2022/09/23 08:37:02;;;;;;;99.22;63.88;;;;;;;12.14;100.00;101411.72;6245925;23;20483;-83
2022/09/23 08:39:35;;;;;;;82.30;61.85;;;;;;;12.17;100.00;101401.72;6247352;23;20016;-86
2022/09/23 08:42:19;;;;;;;44.05;40.92;;;;;;;12.09;100.00;101408.81;6245724;23;20047;-83
2022/09/23 08:44:58;;;;;;;45.03;41.70;;;;;;;12.25;100.00;101412.16;6245992;23;20020;-86
2022/09/23 08:47:42;;;;;;;42.78;39.83;;;;;;;12.39;100.00;101416.50;6246389;23;20044;-81
2022/09/23 08:50:19;;;;;;;41.50;38.53;;;;;;;11.81;100.00;101427.50;6246234;23;20015;-84
2022/09/23 08:52:55;;;;;;;42.58;39.53;;;;;;;11.85;100.00;101433.28;6246058;23;20034;-82
2022/09/23 08:55:34;;;;;;;40.67;37.75;;;;;;;12.13;100.00;101433.22;6245410;23;20016;-83
2022/09/23 08:58:21;;;;;;;42.28;39.40;;;;;;;11.95;100.00;101439.06;6246631;23;20074;-81
2022/09/23 09:01:06;;;;;;;45.47;42.35;;;;;;;11.83;100.00;101436.13;6245199;22;20028;-82
2022/09/23 09:03:50;;;;;;;43.00;40.00;;;;;;;11.88;100.00;101438.22;6246543;23;20032;-80
2022/09/23 09:06:34;;;;;;;43.50;40.40;;;;;;;12.03;100.00;101438.09;6245889;23;20028;-83
2022/09/23 09:09:18;;;;;;;45.70;42.60;;;;;;;12.49;100.00;101432.94;6245178;23;20052;-85
2022/09/23 09:11:51;;;;;;;43.75;40.65;;;;;;;12.77;100.00;101419.47;6245428;23;20024;-81
2022/09/23 09:14:31;;;;;;;43.30;40.35;;;;;;;12.87;100.00;101423.59;6246441;23;20094;-82
2022/09/23 09:17:09;;;;;;;39.75;37.30;;;;;;;12.64;100.00;101419.44;6246140;23;20086;-83
2022/09/23 09:19:55;;;;;;;40.95;38.40;;;;;;;12.64;100.00;101427.44;6246201;23;20020;-83
2022/09/23 09:22:52;;;;;;;41.17;38.38;;;;;;;13.44;100.00;101420.31;6246470;23;20382;-81
2022/09/23 09:25:41;;;;;;;38.40;35.95;;;;;;;13.63;100.00;101417.81;6246036;23;20417;-85
2022/09/23 09:28:18;;;;;;;37.10;34.70;;;;;;;13.20;100.00;101419.06;6246023;23;20024;-82
2022/09/23 09:30:52;;;;;;;44.83;41.83;;;;;;;14.23;100.00;101415.75;6246210;23;20017;-81
2022/09/23 09:33:29;;;;;;;42.15;39.35;;;;;;;14.52;100.00;101426.91;6245775;23;20028;-81
2022/09/23 09:36:41;;;;;;;38.92;36.30;;;;;;;14.85;100.00;101426.72;6245840;23;20027;-82
2022/09/23 09:39:13;;;;;;;38.10;35.70;;;;;;;15.01;100.00;101425.38;6232963;23;20395;-81
2022/09/23 09:41:49;;;;;;;34.20;32.08;;;;;;;14.96;100.00;101425.19;6246074;23;20247;-84
2022/09/23 09:44:33;;;;;;;33.53;31.52;;;;;;;15.14;100.00;101425.25;6245784;23;20016;-81
2022/09/23 09:47:20;;;;;;;35.78;33.67;;;;;;;16.00;100.00;101421.72;6245566;23;20024;-82
2022/09/23 09:49:58;;;;;;;34.28;32.33;;;;;;;16.35;100.00;101423.75;6245354;23;20512;-83
2022/09/23 09:52:37;;;;;;;34.30;32.10;;;;;;;16.09;100.00;101427.59;6246138;23;20020;-83
2022/09/23 09:55:27;;;;;;;34.58;32.25;;;;;;;15.68;100.00;101431.78;6245078;23;20192;-81
2022/09/23 09:58:04;;;;;;;34.58;32.45;;;;;;;15.44;100.00;101430.75;6245644;23;20035;-80
2022/09/23 10:00:42;;;;;;;34.92;32.38;;;;;;;15.35;100.00;101424.84;6245860;23;20031;-82
2022/09/23 10:03:42;;;;;;;36.95;34.78;;;;;;;15.94;100.00;101435.19;6245088;23;20097;-83
2022/09/23 10:06:31;;;;;;;36.92;34.60;;;;;;;16.85;100.00;101422.66;6245845;23;20384;-81
2022/09/23 10:09:12;;;;;;;35.97;33.97;;;;;;;18.22;100.00;101421.41;6196770;23;20119;-82
2022/09/23 10:11:41;;;;;;;40.33;37.88;;;;;;;19.56;100.00;101414.47;6246890;23;20043;-81
2022/09/23 10:14:18;;;;;;;36.97;34.67;;;;;;;20.51;100.00;101410.47;6248384;23;20024;-87
2022/09/23 10:17:14;;;;;;;33.45;31.55;;;;;;;18.35;100.00;101413.03;6247795;23;20097;-83
2022/09/23 10:19:51;;;;;;;31.98;30.08;;;;;;;18.12;100.00;101405.06;6248236;23;20039;-84
2022/09/23 10:22:34;;;;;;;33.33;31.52;;;;;;;20.44;100.00;101409.06;6247823;23;20098;-85
2022/09/23 10:25:06;;;;;;;;;;;;;;;20.86;100.00;101401.09;6248905;23;20020;-81
2022/09/23 10:27:35;;;;;;;35.00;32.70;;;;;;;21.86;100.00;101387.63;6247057;23;19919;-80
2022/09/23 10:30:07;;;;;;;33.83;32.10;;;;;;;21.48;100.00;101391.50;6247159;23;20024;-82
2022/09/23 10:32:39;;;;;;;33.67;31.92;;;;;;;22.44;96.90;101394.84;6246936;23;20024;-82
2022/09/23 10:35:20;;;;;;;32.22;30.52;;;;;;;20.51;90.54;101388.88;6247228;23;20021;-81
2022/09/23 10:37:52;;;;;;;33.15;31.38;;;;;;;21.88;93.42;101382.78;6248102;23;20024;-86
2022/09/23 10:46:45;;;;;;;33.88;32.08;;;;;;;22.70;84.16;101379.44;6247936;23;20030;-84
2022/09/23 10:50:00;;;;;;;35.70;33.58;;;;;;;21.76;86.85;101376.78;6247428;23;20020;-84
2022/09/23 10:52:43;;;;;;;33.38;31.30;;;;;;;18.36;100.00;101373.53;6174737;23;20115;-85
2022/09/23 10:55:37;;;;;;;34.60;32.67;;;;;;;18.81;100.00;101370.81;6247793;23;20445;-83
2022/09/23 10:58:40;;;;;;;33.95;32.05;;;;;;;22.32;94.29;101362.63;6247999;23;20032;-86
2022/09/23 11:01:27;;;;;;;33.90;32.00;;;;;;;22.12;88.00;101364.19;6245965;22;20035;-84
2022/09/23 11:04:34;;;;;;;35.47;33.33;;;;;;;21.70;79.36;101365.16;6247898;23;20031;-85
2022/09/23 11:07:34;;;;;;;34.55;32.75;;;;;;;21.99;81.42;101350.34;6248052;23;20024;-83
2022/09/23 11:10:54;;;;;;;34.00;32.10;;;;;;;22.77;73.09;101344.75;6248028;23;20020;-84
2022/09/23 11:13:59;;;;;;;33.65;31.65;;;;;;;21.68;75.20;101337.56;6244777;23;20115;-83
2022/09/23 11:16:41;;;;;;;35.45;33.47;;;;;;;22.84;75.17;101338.00;6178617;23;20020;-86
2022/09/23 11:19:31;;;;;;;;;;;;;;;22.34;69.44;101334.22;6248481;23;20449;-84
2022/09/23 11:22:36;;;;;;;33.80;32.00;;;;;;;22.86;68.40;101329.59;6247628;23;19915;-86
2022/09/23 11:25:40;;;;;;;;;;;;;;;;;;;;;
2022/09/23 11:28:49;;;;;;;35.88;33.97;;;;;;;20.81;73.62;101318.16;6247947;23;20118;-84
2022/09/23 11:31:37;;;;;;;33.03;31.20;;;;;;;22.15;69.17;101327.69;6248087;23;20016;-83
2022/09/23 11:34:48;;;;;;;34.97;33.08;;;;;;;21.03;75.99;101318.06;6247962;23;20035;-85
2022/09/23 11:37:21;;;;;;;34.35;32.35;;;;;;;21.76;81.32;101306.50;6247764;23;20016;-86
2022/09/23 11:40:05;;;;;;;34.45;32.35;;;;;;;22.96;61.41;101296.28;6247351;23;20028;-85
2022/09/23 11:42:47;;;;;;;33.60;31.67;;;;;;;20.79;74.84;101301.44;6247574;23;20046;-83
2022/09/23 11:45:34;;;;;;;40.63;38.33;;;;;;;19.53;80.96;101299.94;6248413;23;20024;-88
2022/09/23 11:48:21;;;;;;;36.22;34.22;;;;;;;22.86;63.59;101284.34;6247405;23;20432;-85
2022/09/23 11:50:57;;;;;;;35.60;33.38;;;;;;;20.90;66.51;101290.69;6248145;23;20031;-84
2022/09/23 11:53:50;;;;;;;34.60;32.60;;;;;;;22.60;64.11;101274.66;6247439;23;20059;-86
2022/09/23 11:56:25;;;;;;;32.83;30.92;;;;;;;22.74;58.96;101278.44;6247178;23;20027;-82